sensor_id;sensor_type;location;lat;lon;timestamp;pressure;altitude;pressure_sealevel;temperature;humidity
65754;BME280;52488;47.502;18.940;2022-11-22T00:00:34;97177.09;;;-0.22;100.00
65754;BME280;52488;47.502;18.940;2022-11-22T00:01:37;97172.94;;;-0.23;100.00
65754;BME280;52488;47.502;18.940;2022-11-22T00:02:41;97170.97;;;-0.23;100.00
65754;BME280;52488;47.502;18.940;2022-11-22T00:03:44;97161.66;;;-0.22;100.00
65754;BME280;52488;47.502;18.940;2022-11-22T00:04:50;97167.75;;;-0.21;100.00
65754;BME280;52488;47.502;18.940;2022-11-22T00:05:53;97164.34;;;-0.22;100.00
65754;BME280;52488;47.502;18.940;2022-11-22T00:06:56;97156.03;;;-0.24;100.00
65754;BME280;52488;47.502;18.940;2022-11-22T00:07:59;97165.41;;;-0.25;100.00
65754;BME280;52488;47.502;18.940;2022-11-22T00:09:02;97163.22;;;-0.27;100.00
65754;BME280;52488;47.502;18.940;2022-11-22T00:10:06;97164.69;;;-0.25;100.00
65754;BME280;52488;47.502;18.940;2022-11-22T00:11:09;97166.13;;;-0.24;100.00
65754;BME280;52488;47.502;18.940;2022-11-22T00:12:12;97160.72;;;-0.24;100.00
65754;BME280;52488;47.502;18.940;2022-11-22T00:13:16;97164.69;;;-0.25;100.00
65754;BME280;52488;47.502;18.940;2022-11-22T00:14:19;97158.87;;;-0.30;100.00
65754;BME280;52488;47.502;18.940;2022-11-22T00:15:22;97162.12;;;-0.31;99.98
65754;BME280;52488;47.502;18.940;2022-11-22T00:16:25;97164.81;;;-0.31;99.97
65754;BME280;52488;47.502;18.940;2022-11-22T00:17:27;97161.41;;;-0.32;99.83
65754;BME280;52488;47.502;18.940;2022-11-22T00:18:34;97159.56;;;-0.37;99.68
65754;BME280;52488;47.502;18.940;2022-11-22T00:19:37;97165.50;;;-0.38;99.63
65754;BME280;52488;47.502;18.940;2022-11-22T00:20:43;97162.28;;;-0.37;99.70
65754;BME280;52488;47.502;18.940;2022-11-22T00:21:46;97169.44;;;-0.39;99.66
65754;BME280;52488;47.502;18.940;2022-11-22T00:22:49;97153.59;;;-0.43;99.60
65754;BME280;52488;47.502;18.940;2022-11-22T00:23:55;97168.53;;;-0.42;99.59
65754;BME280;52488;47.502;18.940;2022-11-22T00:25:00;97164.19;;;-0.45;99.50
65754;BME280;52488;47.502;18.940;2022-11-22T00:26:03;97159.31;;;-0.46;99.45
65754;BME280;52488;47.502;18.940;2022-11-22T00:27:07;97163.09;;;-0.49;99.53
65754;BME280;52488;47.502;18.940;2022-11-22T00:28:10;97159.69;;;-0.50;99.67
65754;BME280;52488;47.502;18.940;2022-11-22T00:29:13;97163.28;;;-0.47;99.71
65754;BME280;52488;47.502;18.940;2022-11-22T00:30:16;97159.16;;;-0.48;99.77
65754;BME280;52488;47.502;18.940;2022-11-22T00:31:19;97161.84;;;-0.48;99.83
65754;BME280;52488;47.502;18.940;2022-11-22T00:32:22;97167.03;;;-0.50;99.93
65754;BME280;52488;47.502;18.940;2022-11-22T00:33:25;97159.69;;;-0.50;100.00
65754;BME280;52488;47.502;18.940;2022-11-22T00:34:28;97161.62;;;-0.50;100.00
65754;BME280;52488;47.502;18.940;2022-11-22T00:35:31;97154.06;;;-0.52;100.00
65754;BME280;52488;47.502;18.940;2022-11-22T00:36:34;97148.88;;;-0.50;100.00
65754;BME280;52488;47.502;18.940;2022-11-22T00:37:37;97157.69;;;-0.49;100.00
65754;BME280;52488;47.502;18.940;2022-11-22T00:38:40;97150.37;;;-0.41;100.00
65754;BME280;52488;47.502;18.940;2022-11-22T00:39:43;97149.81;;;-0.40;100.00
65754;BME280;52488;47.502;18.940;2022-11-22T00:40:46;97144.44;;;-0.40;100.00
65754;BME280;52488;47.502;18.940;2022-11-22T00:41:49;97154.00;;;-0.39;100.00
65754;BME280;52488;47.502;18.940;2022-11-22T00:42:52;97152.38;;;-0.34;100.00
65754;BME280;52488;47.502;18.940;2022-11-22T00:43:55;97136.91;;;-0.34;100.00
65754;BME280;52488;47.502;18.940;2022-11-22T00:44:57;97131.19;;;-0.30;100.00
65754;BME280;52488;47.502;18.940;2022-11-22T00:46:00;97142.53;;;-0.24;100.00
65754;BME280;52488;47.502;18.940;2022-11-22T00:47:03;97139.12;;;-0.24;100.00
65754;BME280;52488;47.502;18.940;2022-11-22T00:48:06;97141.66;;;-0.27;100.00
65754;BME280;52488;47.502;18.940;2022-11-22T00:49:09;97133.19;;;-0.23;100.00
65754;BME280;52488;47.502;18.940;2022-11-22T00:50:12;97133.91;;;-0.22;100.00
65754;BME280;52488;47.502;18.940;2022-11-22T00:51:15;97139.12;;;-0.24;100.00
65754;BME280;52488;47.502;18.940;2022-11-22T00:52:18;97146.88;;;-0.21;100.00
65754;BME280;52488;47.502;18.940;2022-11-22T00:53:22;97139.69;;;-0.18;100.00
65754;BME280;52488;47.502;18.940;2022-11-22T00:54:25;97143.13;;;-0.18;100.00
65754;BME280;52488;47.502;18.940;2022-11-22T00:55:28;97144.03;;;-0.15;100.00
65754;BME280;52488;47.502;18.940;2022-11-22T00:56:30;97139.22;;;-0.09;100.00
65754;BME280;52488;47.502;18.940;2022-11-22T00:57:33;97138.50;;;-0.10;100.00
65754;BME280;52488;47.502;18.940;2022-11-22T00:58:36;97139.59;;;-0.05;100.00
65754;BME280;52488;47.502;18.940;2022-11-22T00:59:39;97149.84;;;-0.04;100.00
65754;BME280;52488;47.502;18.940;2022-11-22T01:00:42;97137.78;;;-0.03;100.00
65754;BME280;52488;47.502;18.940;2022-11-22T01:01:46;97141.13;;;0.19;100.00
65754;BME280;52488;47.502;18.940;2022-11-22T01:02:49;97138.28;;;0.32;100.00
65754;BME280;52488;47.502;18.940;2022-11-22T01:03:52;97142.06;;;0.37;100.00
65754;BME280;52488;47.502;18.940;2022-11-22T01:04:55;97144.25;;;0.46;100.00
65754;BME280;52488;47.502;18.940;2022-11-22T01:05:58;97145.38;;;0.58;100.00
65754;BME280;52488;47.502;18.940;2022-11-22T01:07:02;97151.69;;;0.68;100.00
65754;BME280;52488;47.502;18.940;2022-11-22T01:08:05;97148.78;;;0.66;100.00
65754;BME280;52488;47.502;18.940;2022-11-22T01:09:09;97148.63;;;0.64;100.00
65754;BME280;52488;47.502;18.940;2022-11-22T01:10:12;97155.47;;;0.65;100.00
65754;BME280;52488;47.502;18.940;2022-11-22T01:11:17;97146.62;;;0.65;100.00
65754;BME280;52488;47.502;18.940;2022-11-22T01:12:20;97146.62;;;0.65;100.00
65754;BME280;52488;47.502;18.940;2022-11-22T01:13:24;97144.31;;;0.69;100.00
65754;BME280;52488;47.502;18.940;2022-11-22T01:14:27;97153.84;;;0.70;100.00
65754;BME280;52488;47.502;18.940;2022-11-22T01:15:31;97143.59;;;0.68;100.00
65754;BME280;52488;47.502;18.940;2022-11-22T01:16:34;97146.47;;;0.70;100.00
65754;BME280;52488;47.502;18.940;2022-11-22T01:17:37;97144.47;;;0.71;100.00
65754;BME280;52488;47.502;18.940;2022-11-22T01:18:40;97142.50;;;0.71;100.00
65754;BME280;52488;47.502;18.940;2022-11-22T01:19:44;97145.03;;;0.69;100.00
65754;BME280;52488;47.502;18.940;2022-11-22T01:20:48;97147.00;;;0.69;100.00
65754;BME280;52488;47.502;18.940;2022-11-22T01:21:50;97144.47;;;0.71;100.00
65754;BME280;52488;47.502;18.940;2022-11-22T01:22:54;97149.38;;;0.72;100.00
65754;BME280;52488;47.502;18.940;2022-11-22T01:23:56;97142.31;;;0.69;100.00
65754;BME280;52488;47.502;18.940;2022-11-22T01:24:59;97144.13;;;0.67;100.00
65754;BME280;52488;47.502;18.940;2022-11-22T01:26:06;97140.50;;;0.64;100.00
65754;BME280;52488;47.502;18.940;2022-11-22T01:27:10;97139.62;;;0.69;100.00
65754;BME280;52488;47.502;18.940;2022-11-22T01:28:13;97134.75;;;0.68;100.00
65754;BME280;52488;47.502;18.940;2022-11-22T01:29:16;97132.22;;;0.70;100.00
65754;BME280;52488;47.502;18.940;2022-11-22T01:30:19;97131.84;;;0.66;100.00
65754;BME280;52488;47.502;18.940;2022-11-22T01:31:22;97128.97;;;0.71;100.00
65754;BME280;52488;47.502;18.940;2022-11-22T01:32:26;97128.97;;;0.71;100.00
65754;BME280;52488;47.502;18.940;2022-11-22T01:33:29;97128.63;;;0.75;100.00
65754;BME280;52488;47.502;18.940;2022-11-22T01:34:33;97121.41;;;0.77;100.00
65754;BME280;52488;47.502;18.940;2022-11-22T01:35:36;97131.88;;;0.81;100.00
65754;BME280;52488;47.502;18.940;2022-11-22T01:36:39;97129.53;;;0.77;100.00
65754;BME280;52488;47.502;18.940;2022-11-22T01:37:42;97133.31;;;0.82;100.00
65754;BME280;52488;47.502;18.940;2022-11-22T01:38:45;97125.94;;;0.83;100.00
65754;BME280;52488;47.502;18.940;2022-11-22T01:39:47;97123.22;;;0.83;100.00
65754;BME280;52488;47.502;18.940;2022-11-22T01:40:51;97129.91;;;0.82;100.00
65754;BME280;52488;47.502;18.940;2022-11-22T01:41:54;97136.22;;;0.84;100.00
65754;BME280;52488;47.502;18.940;2022-11-22T01:42:58;97131.88;;;0.81;100.00
65754;BME280;52488;47.502;18.940;2022-11-22T01:44:20;97135.47;;;0.76;100.00
65754;BME280;52488;47.502;18.940;2022-11-22T01:46:36;97133.16;;;0.72;100.00
65754;BME280;52488;47.502;18.940;2022-11-22T01:47:40;97132.94;;;0.70;100.00
65754;BME280;52488;47.502;18.940;2022-11-22T01:48:52;97131.88;;;0.73;100.00
65754;BME280;52488;47.502;18.940;2022-11-22T01:50:04;97141.97;;;0.73;100.00
65754;BME280;52488;47.502;18.940;2022-11-22T01:52:25;97138.91;;;0.76;100.00
65754;BME280;52488;47.502;18.940;2022-11-22T01:53:34;97140.72;;;0.74;100.00
65754;BME280;52488;47.502;18.940;2022-11-22T01:54:40;97134.38;;;0.71;100.00
65754;BME280;52488;47.502;18.940;2022-11-22T01:55:49;97124.50;;;0.74;100.00
65754;BME280;52488;47.502;18.940;2022-11-22T01:56:57;97134.03;;;0.75;100.00
65754;BME280;52488;47.502;18.940;2022-11-22T01:58:01;97123.06;;;0.88;100.00
65754;BME280;52488;47.502;18.940;2022-11-22T01:59:08;97127.56;;;0.86;100.00
65754;BME280;52488;47.502;18.940;2022-11-22T02:00:16;97126.31;;;0.87;100.00
65754;BME280;52488;47.502;18.940;2022-11-22T02:01:19;97131.34;;;0.83;100.00
65754;BME280;52488;47.502;18.940;2022-11-22T02:02:23;97124.66;;;0.76;100.00
65754;BME280;52488;47.502;18.940;2022-11-22T02:03:27;97121.06;;;0.73;100.00
65754;BME280;52488;47.502;18.940;2022-11-22T02:04:32;97127.19;;;0.74;100.00
65754;BME280;52488;47.502;18.940;2022-11-22T02:05:37;97125.38;;;0.69;100.00
65754;BME280;52488;47.502;18.940;2022-11-22T02:08:12;97130.25;;;0.70;100.00
65754;BME280;52488;47.502;18.940;2022-11-22T02:09:17;97123.78;;;0.73;100.00
65754;BME280;52488;47.502;18.940;2022-11-22T02:10:22;97129.72;;;0.79;100.00
65754;BME280;52488;47.502;18.940;2022-11-22T02:11:27;97128.28;;;0.78;100.00
65754;BME280;52488;47.502;18.940;2022-11-22T02:12:35;97125.38;;;0.76;100.00
65754;BME280;52488;47.502;18.940;2022-11-22T02:13:40;97129.53;;;0.77;100.00
65754;BME280;52488;47.502;18.940;2022-11-22T02:14:45;97125.59;;;0.78;100.00
65754;BME280;52488;47.502;18.940;2022-11-22T02:15:50;97131.34;;;0.75;100.00
65754;BME280;52488;47.502;18.940;2022-11-22T02:16:57;97129.53;;;0.77;100.00
65754;BME280;52488;47.502;18.940;2022-11-22T02:18:00;97127.19;;;0.74;100.00
65754;BME280;52488;47.502;18.940;2022-11-22T02:19:17;97130.06;;;0.68;100.00
65754;BME280;52488;47.502;18.940;2022-11-22T02:20:21;97127.72;;;0.65;100.00
65754;BME280;52488;47.502;18.940;2022-11-22T02:21:24;97126.44;;;0.66;100.00
65754;BME280;52488;47.502;18.940;2022-11-22T02:24:08;97129.72;;;0.79;100.00
65754;BME280;52488;47.502;18.940;2022-11-22T02:26:26;97123.22;;;0.75;100.00
65754;BME280;52488;47.502;18.940;2022-11-22T02:27:29;97115.47;;;0.71;100.00
65754;BME280;52488;47.502;18.940;2022-11-22T02:28:36;97112.97;;;0.73;100.00
65754;BME280;52488;47.502;18.940;2022-11-22T02:29:41;97105.91;;;0.70;100.00
65754;BME280;52488;47.502;18.940;2022-11-22T02:30:45;97106.47;;;0.76;100.00
65754;BME280;52488;47.502;18.940;2022-11-22T02:31:48;97106.13;;;0.72;100.00
65754;BME280;52488;47.502;18.940;2022-11-22T02:32:51;97101.22;;;0.71;100.00
65754;BME280;52488;47.502;18.940;2022-11-22T02:33:53;97098.91;;;0.75;100.00
65754;BME280;52488;47.502;18.940;2022-11-22T02:36:17;97098.91;;;0.67;100.00
65754;BME280;52488;47.502;18.940;2022-11-22T02:37:24;97100.34;;;0.68;100.00
65754;BME280;52488;47.502;18.940;2022-11-22T02:38:33;97094.94;;;0.68;100.00
65754;BME280;52488;47.502;18.940;2022-11-22T02:39:37;97088.25;;;0.62;100.00
65754;BME280;52488;47.502;18.940;2022-11-22T02:40:52;97098.19;;;0.67;100.00
65754;BME280;52488;47.502;18.940;2022-11-22T02:41:56;97094.91;;;0.61;100.00
65754;BME280;52488;47.502;18.940;2022-11-22T02:43:02;97103.38;;;0.57;100.00
65754;BME280;52488;47.502;18.940;2022-11-22T02:44:08;97106.63;;;0.56;100.00
65754;BME280;52488;47.502;18.940;2022-11-22T02:45:15;97108.78;;;0.65;100.00
65754;BME280;52488;47.502;18.940;2022-11-22T02:46:18;97113.09;;;0.60;100.00
65754;BME280;52488;47.502;18.940;2022-11-22T02:47:23;97104.47;;;0.54;100.00
65754;BME280;52488;47.502;18.940;2022-11-22T02:48:26;97106.63;;;0.63;100.00
65754;BME280;52488;47.502;18.940;2022-11-22T02:49:29;97099.59;;;0.60;100.00
65754;BME280;52488;47.502;18.940;2022-11-22T02:50:33;97094.19;;;0.60;100.00
65754;BME280;52488;47.502;18.940;2022-11-22T02:51:35;97107.53;;;0.58;100.00
65754;BME280;52488;47.502;18.940;2022-11-22T02:52:38;97105.37;;;0.57;100.00
65754;BME280;52488;47.502;18.940;2022-11-22T02:53:42;97111.87;;;0.61;100.00
65754;BME280;52488;47.502;18.940;2022-11-22T02:54:45;97112.22;;;0.58;100.00
65754;BME280;52488;47.502;18.940;2022-11-22T02:55:48;97114.19;;;0.65;100.00
65754;BME280;52488;47.502;18.940;2022-11-22T02:56:51;97114.56;;;0.61;100.00
65754;BME280;52488;47.502;18.940;2022-11-22T02:57:55;97116.69;;;0.55;100.00
65754;BME280;52488;47.502;18.940;2022-11-22T02:58:58;97112.19;;;0.50;100.00
65754;BME280;52488;47.502;18.940;2022-11-22T03:00:01;97107.88;;;0.47;100.00
65754;BME280;52488;47.502;18.940;2022-11-22T03:01:04;97108.59;;;0.47;100.00
65754;BME280;52488;47.502;18.940;2022-11-22T03:02:07;97105.34;;;0.41;100.00
65754;BME280;52488;47.502;18.940;2022-11-22T03:03:09;97101.91;;;0.41;100.00
65754;BME280;52488;47.502;18.940;2022-11-22T03:04:13;97098.84;;;0.44;100.00
65754;BME280;52488;47.502;18.940;2022-11-22T03:05:26;97101.56;;;0.52;100.00
65754;BME280;52488;47.502;18.940;2022-11-22T03:06:29;97102.66;;;0.57;100.00
65754;BME280;52488;47.502;18.940;2022-11-22T03:07:33;97105.37;;;0.64;100.00
65754;BME280;52488;47.502;18.940;2022-11-22T03:08:36;97099.97;;;0.64;100.00
65754;BME280;52488;47.502;18.940;2022-11-22T03:09:39;97101.06;;;0.61;100.00
65754;BME280;52488;47.502;18.940;2022-11-22T03:10:42;97098.34;;;0.69;100.00
65754;BME280;52488;47.502;18.940;2022-11-22T03:11:45;97100.88;;;0.67;100.00
65754;BME280;52488;47.502;18.940;2022-11-22T03:12:49;97089.53;;;0.68;100.00
65754;BME280;52488;47.502;18.940;2022-11-22T03:13:52;97096.37;;;0.77;100.00
65754;BME280;52488;47.502;18.940;2022-11-22T03:14:54;97095.84;;;0.78;100.00
65754;BME280;52488;47.502;18.940;2022-11-22T03:15:57;97095.09;;;0.93;100.00
65754;BME280;52488;47.502;18.940;2022-11-22T03:17:00;97093.31;;;0.96;100.00
65754;BME280;52488;47.502;18.940;2022-11-22T03:18:04;97090.41;;;0.94;100.00
65754;BME280;52488;47.502;18.940;2022-11-22T03:19:07;97091.88;;;0.87;100.00
65754;BME280;52488;47.502;18.940;2022-11-22T03:20:10;97092.25;;;0.84;100.00
65754;BME280;52488;47.502;18.940;2022-11-22T03:21:13;97091.16;;;0.87;100.00
65754;BME280;52488;47.502;18.940;2022-11-22T03:22:16;97089.91;;;0.80;100.00
65754;BME280;52488;47.502;18.940;2022-11-22T03:23:19;97093.88;;;0.79;100.00
65754;BME280;52488;47.502;18.940;2022-11-22T03:24:22;97094.75;;;0.82;100.00
65754;BME280;52488;47.502;18.940;2022-11-22T03:25:25;97093.50;;;0.90;100.00
65754;BME280;52488;47.502;18.940;2022-11-22T03:26:30;97093.84;;;0.87;100.00
65754;BME280;52488;47.502;18.940;2022-11-22T03:27:33;97089.72;;;0.86;100.00
65754;BME280;52488;47.502;18.940;2022-11-22T03:28:36;97093.50;;;0.83;100.00
65754;BME280;52488;47.502;18.940;2022-11-22T03:29:40;97091.16;;;0.87;100.00
65754;BME280;52488;47.502;18.940;2022-11-22T03:30:43;97094.41;;;0.85;100.00
65754;BME280;52488;47.502;18.940;2022-11-22T03:31:46;97093.69;;;0.85;100.00
65754;BME280;52488;47.502;18.940;2022-11-22T03:32:49;97101.06;;;0.84;100.00
65754;BME280;52488;47.502;18.940;2022-11-22T03:33:52;97101.44;;;0.81;100.00
65754;BME280;52488;47.502;18.940;2022-11-22T03:34:58;97087.75;;;0.78;100.00
65754;BME280;52488;47.502;18.940;2022-11-22T03:36:02;97092.59;;;0.80;100.00
65754;BME280;52488;47.502;18.940;2022-11-22T03:37:05;97100.34;;;0.84;100.00
65754;BME280;52488;47.502;18.940;2022-11-22T03:38:08;97096.19;;;0.83;100.00
65754;BME280;52488;47.502;18.940;2022-11-22T03:39:11;97098.53;;;0.86;100.00
65754;BME280;52488;47.502;18.940;2022-11-22T03:40:14;97091.53;;;0.91;100.00
65754;BME280;52488;47.502;18.940;2022-11-22T03:41:17;97094.03;;;1.04;100.00
65754;BME280;52488;47.502;18.940;2022-11-22T03:42:20;97097.63;;;1.14;100.00
65754;BME280;52488;47.502;18.940;2022-11-22T03:43:23;97098.53;;;1.17;100.00
65754;BME280;52488;47.502;18.940;2022-11-22T03:44:26;97101.25;;;1.17;100.00
65754;BME280;52488;47.502;18.940;2022-11-22T03:45:29;97097.28;;;1.18;100.00
65754;BME280;52488;47.502;18.940;2022-11-22T03:46:32;97091.69;;;1.23;100.00
65754;BME280;52488;47.502;18.940;2022-11-22T03:47:36;97097.97;;;1.26;100.00
65754;BME280;52488;47.502;18.940;2022-11-22T03:48:39;97092.22;;;1.29;100.00
65754;BME280;52488;47.502;18.940;2022-11-22T03:49:42;97095.44;;;1.36;100.00
65754;BME280;52488;47.502;18.940;2022-11-22T03:50:45;97088.03;;;1.44;100.00
65754;BME280;52488;47.502;18.940;2022-11-22T03:51:48;97087.31;;;1.43;100.00
65754;BME280;52488;47.502;18.940;2022-11-22T03:52:51;97089.13;;;1.41;100.00
65754;BME280;52488;47.502;18.940;2022-11-22T03:53:54;97085.16;;;1.42;100.00
65754;BME280;52488;47.502;18.940;2022-11-22T03:54:57;97086.41;;;1.41;100.00
65754;BME280;52488;47.502;18.940;2022-11-22T03:56:00;97097.03;;;1.39;100.00
65754;BME280;52488;47.502;18.940;2022-11-22T03:57:06;97087.50;;;1.38;100.00
65754;BME280;52488;47.502;18.940;2022-11-22T03:58:09;97081.00;;;1.41;100.00
65754;BME280;52488;47.502;18.940;2022-11-22T03:59:12;97074.28;;;1.57;100.00
65754;BME280;52488;47.502;18.940;2022-11-22T04:00:15;97076.41;;;1.66;100.00
65754;BME280;52488;47.502;18.940;2022-11-22T04:01:19;97067.56;;;1.66;100.00
65754;BME280;52488;47.502;18.940;2022-11-22T04:02:22;97077.50;;;1.63;100.00
65754;BME280;52488;47.502;18.940;2022-11-22T04:03:25;97077.69;;;1.65;100.00
65754;BME280;52488;47.502;18.940;2022-11-22T04:04:28;97074.09;;;1.63;100.00
65754;BME280;52488;47.502;18.940;2022-11-22T04:05:31;97077.16;;;1.59;100.00
65754;BME280;52488;47.502;18.940;2022-11-22T04:06:34;97078.00;;;1.77;100.00
65754;BME280;52488;47.502;18.940;2022-11-22T04:07:37;97074.75;;;1.78;100.00
65754;BME280;52488;47.502;18.940;2022-11-22T04:08:40;97069.34;;;1.78;100.00
65754;BME280;52488;47.502;18.940;2022-11-22T04:09:43;97078.56;;;1.75;100.00
65754;BME280;52488;47.502;18.940;2022-11-22T04:10:50;97078.75;;;1.70;100.00
65754;BME280;52488;47.502;18.940;2022-11-22T04:12:02;97081.81;;;1.66;100.00
65754;BME280;52488;47.502;18.940;2022-11-22T04:13:05;97080.22;;;1.63;100.00
65754;BME280;52488;47.502;18.940;2022-11-22T04:14:11;97080.59;;;1.67;100.00
65754;BME280;52488;47.502;18.940;2022-11-22T04:15:33;97083.47;;;1.62;100.00
65754;BME280;52488;47.502;18.940;2022-11-22T04:16:42;97075.16;;;1.67;100.00
65754;BME280;52488;47.502;18.940;2022-11-22T04:17:45;97065.41;;;1.64;100.00
65754;BME280;52488;47.502;18.940;2022-11-22T04:18:50;97074.44;;;1.59;100.00
65754;BME280;52488;47.502;18.940;2022-11-22T04:19:53;97080.41;;;1.57;100.00
65754;BME280;52488;47.502;18.940;2022-11-22T04:21:14;97067.97;;;1.62;100.00
65754;BME280;52488;47.502;18.940;2022-11-22T04:22:36;97077.34;;;1.61;100.00
65754;BME280;52488;47.502;18.940;2022-11-22T04:23:39;97080.59;;;1.67;100.00
65754;BME280;52488;47.502;18.940;2022-11-22T04:24:44;97082.94;;;1.63;100.00
65754;BME280;52488;47.502;18.940;2022-11-22T04:26:06;97074.09;;;1.63;100.00
65754;BME280;52488;47.502;18.940;2022-11-22T04:27:08;97073.03;;;1.58;100.00
65754;BME280;52488;47.502;18.940;2022-11-22T04:28:13;97071.75;;;1.59;100.00
65754;BME280;52488;47.502;18.940;2022-11-22T04:29:16;97071.56;;;1.65;100.00
65754;BME280;52488;47.502;18.940;2022-11-22T04:30:20;97067.94;;;1.70;100.00
65754;BME280;52488;47.502;18.940;2022-11-22T04:31:23;97078.41;;;1.66;100.00
65754;BME280;52488;47.502;18.940;2022-11-22T04:32:44;97063.97;;;1.63;100.00
65754;BME280;52488;47.502;18.940;2022-11-22T04:33:48;97065.78;;;1.68;100.00
65754;BME280;52488;47.502;18.940;2022-11-22T04:34:50;97067.88;;;1.85;100.00
65754;BME280;52488;47.502;18.940;2022-11-22T04:35:54;97056.31;;;1.84;100.00
65754;BME280;52488;47.502;18.940;2022-11-22T04:36:58;97050.38;;;1.78;100.00
65754;BME280;52488;47.502;18.940;2022-11-22T04:38:01;97059.59;;;1.75;100.00
65754;BME280;52488;47.502;18.940;2022-11-22T04:39:04;97073.31;;;1.77;100.00
65754;BME280;52488;47.502;18.940;2022-11-22T04:40:08;97057.78;;;1.78;100.00
65754;BME280;52488;47.502;18.940;2022-11-22T04:41:11;97061.22;;;1.78;100.00
65754;BME280;52488;47.502;18.940;2022-11-22T04:42:14;97063.56;;;1.74;100.00
65754;BME280;52488;47.502;18.940;2022-11-22T04:43:35;97066.63;;;1.78;100.00
65754;BME280;52488;47.502;18.940;2022-11-22T04:44:57;97077.13;;;1.74;100.00
65754;BME280;52488;47.502;18.940;2022-11-22T04:46:01;97059.59;;;1.75;100.00
65754;BME280;52488;47.502;18.940;2022-11-22T04:47:04;97066.66;;;1.71;100.00
65754;BME280;52488;47.502;18.940;2022-11-22T04:48:07;97065.53;;;1.81;100.00
65754;BME280;52488;47.502;18.940;2022-11-22T04:49:10;97059.69;;;2.00;100.00
65754;BME280;52488;47.502;18.940;2022-11-22T04:50:13;97058.22;;;2.07;100.00
65754;BME280;52488;47.502;18.940;2022-11-22T04:51:34;97044.31;;;2.03;100.00
65754;BME280;52488;47.502;18.940;2022-11-22T04:52:56;97051.16;;;2.04;100.00
65754;BME280;52488;47.502;18.940;2022-11-22T04:53:59;97037.59;;;2.11;100.00
65754;BME280;52488;47.502;18.940;2022-11-22T04:55:02;97039.62;;;2.03;100.00
65754;BME280;52488;47.502;18.940;2022-11-22T04:56:05;97032.03;;;2.02;100.00
65754;BME280;52488;47.502;18.940;2022-11-22T04:57:08;97049.38;;;1.99;100.00
65754;BME280;52488;47.502;18.940;2022-11-22T04:58:12;97044.34;;;1.95;100.00
65754;BME280;52488;47.502;18.940;2022-11-22T04:59:15;97048.31;;;1.94;100.00
65754;BME280;52488;47.502;18.940;2022-11-22T05:00:18;97056.66;;;1.89;100.00
65754;BME280;52488;47.502;18.940;2022-11-22T05:01:21;97060.63;;;1.95;100.00
65754;BME280;52488;47.502;18.940;2022-11-22T05:02:24;97068.53;;;2.01;100.00
65754;BME280;52488;47.502;18.940;2022-11-22T05:03:27;97076.16;;;1.95;100.00
65754;BME280;52488;47.502;18.940;2022-11-22T05:04:31;97073.25;;;1.93;100.00
65754;BME280;52488;47.502;18.940;2022-11-22T05:05:40;97074.09;;;2.03;100.00
65754;BME280;52488;47.502;18.940;2022-11-22T05:06:43;97073.97;;;1.93;100.00
65754;BME280;52488;47.502;18.940;2022-11-22T05:07:46;97072.91;;;1.89;100.00
65754;BME280;52488;47.502;18.940;2022-11-22T05:08:49;97067.81;;;1.93;100.00
65754;BME280;52488;47.502;18.940;2022-11-22T05:09:52;97070.38;;;1.91;100.00
65754;BME280;52488;47.502;18.940;2022-11-22T05:10:55;97072.56;;;1.84;99.96
65754;BME280;52488;47.502;18.940;2022-11-22T05:11:58;97070.19;;;1.89;99.95
65754;BME280;52488;47.502;18.940;2022-11-22T05:13:01;97068.59;;;1.85;99.89
65754;BME280;52488;47.502;18.940;2022-11-22T05:14:04;97074.37;;;1.82;99.85
65754;BME280;52488;47.502;18.940;2022-11-22T05:15:08;97068.97;;;1.82;99.96
65754;BME280;52488;47.502;18.940;2022-11-22T05:16:14;97073.09;;;1.91;99.56
65754;BME280;52488;47.502;18.940;2022-11-22T05:17:17;97063.00;;;1.83;99.48
65754;BME280;52488;47.502;18.940;2022-11-22T05:18:20;97077.22;;;1.92;99.36
65754;BME280;52488;47.502;18.940;2022-11-22T05:19:24;97075.59;;;1.89;99.10
65754;BME280;52488;47.502;18.940;2022-11-22T05:20:27;97066.25;;;1.82;99.07
65754;BME280;52488;47.502;18.940;2022-11-22T05:21:30;97060.66;;;1.80;99.06
65754;BME280;52488;47.502;18.940;2022-11-22T05:22:35;97073.69;;;1.74;99.01
65754;BME280;52488;47.502;18.940;2022-11-22T05:23:56;97078.59;;;1.68;99.09
65754;BME280;52488;47.502;18.940;2022-11-22T05:24:59;97076.22;;;1.72;99.04
65754;BME280;52488;47.502;18.940;2022-11-22T05:26:03;97065.41;;;1.64;99.05
65754;BME280;52488;47.502;18.940;2022-11-22T05:27:06;97082.56;;;1.67;99.03
65754;BME280;52488;47.502;18.940;2022-11-22T05:28:09;97088.19;;;1.61;99.08
65754;BME280;52488;47.502;18.940;2022-11-22T05:29:12;97076.25;;;1.64;99.02
65754;BME280;52488;47.502;18.940;2022-11-22T05:30:15;97069.72;;;1.75;98.77
65754;BME280;52488;47.502;18.940;2022-11-22T05:31:20;97082.37;;;1.72;98.39
65754;BME280;52488;47.502;18.940;2022-11-22T05:32:31;97087.25;;;1.66;98.47
65754;BME280;52488;47.502;18.940;2022-11-22T05:33:36;97097.19;;;1.64;98.63
65754;BME280;52488;47.502;18.940;2022-11-22T05:34:42;97078.06;;;1.54;98.81
65754;BME280;52488;47.502;18.940;2022-11-22T05:35:45;97075.53;;;1.64;98.79
65754;BME280;52488;47.502;18.940;2022-11-22T05:36:48;97082.03;;;1.61;98.77
65754;BME280;52488;47.502;18.940;2022-11-22T05:37:51;97079.69;;;1.57;98.88
65754;BME280;52488;47.502;18.940;2022-11-22T05:38:54;97065.06;;;1.60;98.97
65754;BME280;52488;47.502;18.940;2022-11-22T05:39:57;97063.81;;;1.61;99.00
65754;BME280;52488;47.502;18.940;2022-11-22T05:41:04;97075.88;;;1.60;99.04
65754;BME280;52488;47.502;18.940;2022-11-22T05:42:08;97068.69;;;1.63;99.09
65754;BME280;52488;47.502;18.940;2022-11-22T05:43:11;97070.12;;;1.64;99.07
65754;BME280;52488;47.502;18.940;2022-11-22T05:44:14;97079.13;;;1.66;98.92
65754;BME280;52488;47.502;18.940;2022-11-22T05:45:17;97073.84;;;1.76;98.70